Time;durP1;ratioP1;P1;durP2;ratioP2;P2;SDS_P1;SDS_P2;PMS_P1;PMS_P2;Temp;Humidity;BMP_temperature;BMP_pressure;BME280_temperature;BME280_humidity;BME280_pressure;Samples;Min_cycle;Max_cycle;Signal;HPM_P1;HPM_P2
2022/02/25 00:00:11;;;;;;;0.57;0.55;;;4.50;99.90;;;;;;5071446;28;20032;-67
2022/02/25 00:02:37;;;;;;;0.00;0.00;;;4.50;99.90;;;;;;5070467;28;20033;-67
2022/02/25 00:05:04;;;;;;;0.00;0.00;;;4.60;99.90;;;;;;5053504;28;20370;-66
2022/02/25 00:07:30;;;;;;;0.10;0.10;;;4.60;99.90;;;;;;5071563;28;20116;-66
2022/02/25 00:09:56;;;;;;;0.00;0.00;;;4.60;99.90;;;;;;5069933;28;20116;-66
2022/02/25 00:12:21;;;;;;;0.10;0.10;;;4.60;99.90;;;;;;5071442;28;20029;-66
2022/02/25 00:14:48;;;;;;;0.00;0.00;;;4.60;99.90;;;;;;5070022;28;20040;-66
2022/02/25 00:17:15;;;;;;;0.00;0.00;;;4.60;99.90;;;;;;5071088;28;20112;-66
2022/02/25 00:19:40;;;;;;;0.10;0.10;;;4.50;99.90;;;;;;5071294;28;20071;-66
2022/02/25 00:22:06;;;;;;;0.10;0.10;;;4.50;99.90;;;;;;5071262;28;20060;-66
2022/02/25 00:24:32;;;;;;;0.10;0.10;;;4.50;99.90;;;;;;5071036;28;20047;-66
2022/02/25 00:26:58;;;;;;;0.10;0.10;;;4.60;99.90;;;;;;5071264;28;20112;-66
2022/02/25 00:29:24;;;;;;;0.10;0.10;;;4.60;99.90;;;;;;5071259;28;20759;-66
2022/02/25 00:31:49;;;;;;;0.10;0.10;;;4.50;99.90;;;;;;5071379;28;20351;-66
2022/02/25 00:34:15;;;;;;;0.00;0.00;;;4.40;99.90;;;;;;5069655;28;20045;-66
2022/02/25 00:36:41;;;;;;;0.10;0.10;;;4.50;99.90;;;;;;5071654;28;20043;-66
2022/02/25 00:39:06;;;;;;;0.00;0.00;;;4.40;99.90;;;;;;5071097;28;20079;-66
2022/02/25 00:41:32;;;;;;;0.10;0.10;;;4.40;99.90;;;;;;5069579;28;20040;-66
2022/02/25 00:43:58;;;;;;;0.03;0.03;;;4.40;99.90;;;;;;5071351;28;20516;-66
2022/02/25 00:46:23;;;;;;;0.10;0.10;;;4.40;99.90;;;;;;5070831;28;20054;-66
2022/02/25 00:48:49;;;;;;;0.10;0.10;;;4.40;99.90;;;;;;5069630;28;20053;-66
2022/02/25 00:51:16;;;;;;;0.10;0.10;;;4.40;99.90;;;;;;5073302;28;20119;-66
2022/02/25 00:53:41;;;;;;;0.10;0.10;;;4.20;99.90;;;;;;5073515;28;20039;-66
2022/02/25 00:56:07;;;;;;;0.00;0.00;;;4.30;99.90;;;;;;5073513;28;20040;-66
2022/02/25 00:58:33;;;;;;;0.00;0.00;;;4.30;99.90;;;;;;5074470;28;20041;-66
2022/02/25 01:00:59;;;;;;;0.10;0.10;;;4.20;99.90;;;;;;5073315;28;20047;-67
2022/02/25 01:03:24;;;;;;;0.10;0.10;;;4.10;99.90;;;;;;5074804;28;20119;-67
2022/02/25 01:05:50;;;;;;;0.00;0.00;;;4.10;99.90;;;;;;5073179;28;20040;-66
2022/02/25 01:08:16;;;;;;;0.10;0.10;;;3.90;99.90;;;;;;5074630;28;20039;-66
2022/02/25 01:10:42;;;;;;;0.00;0.00;;;4.00;99.90;;;;;;5073485;28;20040;-66
2022/02/25 01:13:07;;;;;;;0.00;0.00;;;4.10;99.90;;;;;;5074526;28;20035;-66
2022/02/25 01:15:34;;;;;;;0.00;0.00;;;3.90;99.90;;;;;;5074413;28;20044;-66
2022/02/25 01:17:59;;;;;;;0.25;0.25;;;3.90;99.90;;;;;;5073383;28;20028;-66
2022/02/25 01:20:25;;;;;;;0.10;0.10;;;3.90;99.90;;;;;;5074350;28;20032;-66
2022/02/25 01:22:51;;;;;;;0.10;0.10;;;3.90;99.90;;;;;;5074487;28;20075;-66
2022/02/25 01:25:17;;;;;;;0.10;0.10;;;3.90;99.90;;;;;;5073956;28;20042;-66
2022/02/25 01:27:43;;;;;;;0.10;0.10;;;3.90;99.90;;;;;;5072959;28;20423;-66
2022/02/25 01:30:11;;;;;;;0.10;0.10;;;3.80;99.90;;;;;;5072660;28;20559;-66
2022/02/25 01:32:38;;;;;;;0.10;0.10;;;3.70;99.90;;;;;;5072972;28;20041;-66
2022/02/25 01:35:05;;;;;;;0.10;0.10;;;3.70;99.90;;;;;;5073087;28;20564;-67
2022/02/25 01:37:31;;;;;;;0.10;0.10;;;3.60;99.90;;;;;;5074112;28;20097;-68
2022/02/25 01:39:57;;;;;;;0.10;0.10;;;3.60;99.90;;;;;;5072600;28;20481;-66
2022/02/25 01:42:23;;;;;;;0.10;0.10;;;3.60;99.90;;;;;;5074089;28;20024;-67
2022/02/25 01:44:49;;;;;;;0.17;0.17;;;3.50;99.90;;;;;;5074163;28;20094;-67
2022/02/25 01:47:15;;;;;;;0.00;0.00;;;3.60;99.90;;;;;;5072588;28;20036;-67
2022/02/25 01:49:43;;;;;;;0.10;0.10;;;3.60;99.90;;;;;;5073848;28;20029;-67
2022/02/25 01:52:17;;;;;;;0.00;0.00;;;3.60;99.90;;;;;;5072488;28;20040;-67
2022/02/25 01:54:45;;;;;;;0.10;0.10;;;3.70;99.90;;;;;;5072208;28;20031;-67
2022/02/25 01:57:14;;;;;;;0.10;0.10;;;3.70;99.90;;;;;;5073861;28;20070;-67
2022/02/25 01:59:42;;;;;;;0.10;0.10;;;3.70;99.90;;;;;;5072228;28;20028;-67
2022/02/25 02:02:09;;;;;;;0.00;0.00;;;3.70;99.90;;;;;;5071803;28;20044;-67
2022/02/25 02:04:37;;;;;;;0.10;0.10;;;3.70;99.90;;;;;;5073606;28;20043;-67
2022/02/25 02:07:03;;;;;;;0.10;0.10;;;3.60;99.90;;;;;;5073275;28;20020;-67
2022/02/25 02:09:29;;;;;;;0.10;0.10;;;3.60;99.90;;;;;;5073012;28;20028;-67
2022/02/25 02:11:55;;;;;;;0.10;0.10;;;3.60;99.90;;;;;;5073399;28;20040;-67
2022/02/25 02:14:24;;;;;;;0.10;0.10;;;3.60;99.90;;;;;;5073431;28;20454;-67
2022/02/25 02:16:53;;;;;;;0.00;0.00;;;3.60;99.90;;;;;;5073139;28;20071;-67
2022/02/25 02:19:20;;;;;;;0.10;0.10;;;3.60;99.90;;;;;;5072967;28;20061;-66
2022/02/25 02:21:50;;;;;;;0.10;0.10;;;3.60;99.90;;;;;;5071785;28;20032;-67
2022/02/25 02:24:18;;;;;;;0.10;0.10;;;3.60;99.90;;;;;;5071930;28;20392;-66
2022/02/25 02:26:46;;;;;;;0.10;0.10;;;3.60;99.90;;;;;;5073119;28;20028;-66
2022/02/25 02:29:12;;;;;;;0.10;0.10;;;3.50;99.90;;;;;;5072840;28;20037;-66
2022/02/25 02:31:39;;;;;;;0.73;0.73;;;3.50;99.90;;;;;;5072790;28;20079;-66
2022/02/25 02:34:07;;;;;;;0.10;0.10;;;3.50;99.90;;;;;;5071899;28;20469;-66
2022/02/25 02:36:33;;;;;;;0.00;0.00;;;3.50;99.90;;;;;;5071259;28;20086;-66
2022/02/25 02:39:00;;;;;;;0.10;0.10;;;3.40;99.90;;;;;;5072674;28;20039;-66
2022/02/25 02:41:26;;;;;;;0.00;0.00;;;3.30;99.90;;;;;;5071046;28;20032;-67
2022/02/25 02:43:52;;;;;;;0.10;0.10;;;3.30;99.90;;;;;;5071201;28;20024;-67
2022/02/25 02:46:17;;;;;;;0.10;0.10;;;3.30;99.90;;;;;;5072739;28;20032;-67
2022/02/25 02:48:43;;;;;;;0.55;0.55;;;3.30;99.90;;;;;;5070816;28;20497;-66
2022/02/25 02:51:10;;;;;;;0.10;0.10;;;3.30;99.90;;;;;;5072643;28;20086;-66
2022/02/25 02:53:37;;;;;;;0.10;0.10;;;3.30;99.90;;;;;;5070947;28;20029;-66
2022/02/25 02:56:04;;;;;;;0.00;0.00;;;3.20;99.90;;;;;;5054786;28;20032;-67
2022/02/25 02:58:29;;;;;;;0.08;0.08;;;3.20;99.90;;;;;;5070861;28;20115;-67
2022/02/25 03:00:55;;;;;;;0.10;0.10;;;3.20;99.90;;;;;;5072067;28;20533;-67
2022/02/25 03:03:22;;;;;;;0.10;0.10;;;3.20;99.90;;;;;;5072228;28;20031;-67
2022/02/25 03:05:49;;;;;;;0.00;0.00;;;3.20;99.90;;;;;;5072449;28;20102;-67
2022/02/25 03:08:15;;;;;;;0.00;0.00;;;3.20;99.90;;;;;;5070707;28;20534;-67
2022/02/25 03:10:44;;;;;;;0.10;0.10;;;3.20;99.90;;;;;;5071835;28;20043;-67
2022/02/25 03:13:12;;;;;;;0.10;0.10;;;3.20;99.90;;;;;;5070169;28;20032;-67
2022/02/25 03:15:38;;;;;;;0.10;0.10;;;3.10;99.90;;;;;;5071683;28;20040;-67
2022/02/25 03:18:05;;;;;;;0.00;0.00;;;3.10;99.90;;;;;;5071868;28;20452;-66
2022/02/25 03:20:31;;;;;;;0.10;0.10;;;3.10;99.90;;;;;;5071809;28;20037;-67
2022/02/25 03:22:56;;;;;;;0.10;0.10;;;3.20;99.90;;;;;;5071684;28;20050;-66
2022/02/25 03:25:22;;;;;;;0.10;0.10;;;3.30;99.90;;;;;;5070739;28;20036;-66
2022/02/25 03:27:48;;;;;;;0.00;0.00;;;3.10;99.90;;;;;;5070476;28;20033;-66
2022/02/25 03:30:15;;;;;;;0.10;0.10;;;3.10;99.90;;;;;;5071703;28;20535;-66
2022/02/25 03:32:44;;;;;;;0.00;0.00;;;3.10;99.90;;;;;;5071505;28;20044;-66
2022/02/25 03:35:13;;;;;;;0.10;0.10;;;3.20;99.90;;;;;;5070480;28;20036;-66
2022/02/25 03:37:40;;;;;;;0.10;0.10;;;3.20;99.90;;;;;;5070344;28;20039;-67
2022/02/25 03:40:08;;;;;;;0.35;0.35;;;3.20;99.90;;;;;;5054127;28;20052;-67
2022/02/25 03:42:34;;;;;;;0.10;0.10;;;3.20;99.90;;;;;;5070280;28;20029;-66
2022/02/25 03:45:01;;;;;;;0.10;0.10;;;3.20;99.90;;;;;;5071725;28;20060;-66
2022/02/25 03:47:26;;;;;;;0.10;0.10;;;3.30;99.90;;;;;;5053132;28;20509;-67
2022/02/25 03:49:52;;;;;;;0.10;0.10;;;3.20;99.90;;;;;;5053639;28;20065;-66
2022/02/25 03:52:19;;;;;;;0.10;0.10;;;3.20;99.90;;;;;;5071712;28;20068;-66
2022/02/25 03:54:45;;;;;;;3.08;2.85;;;3.10;99.90;;;;;;5071449;28;20177;-66
2022/02/25 03:57:11;;;;;;;0.10;0.10;;;3.00;99.90;;;;;;5071676;28;20499;-67
2022/02/25 03:59:36;;;;;;;0.10;0.10;;;3.00;99.90;;;;;;5071156;28;20491;-67
2022/02/25 04:02:03;;;;;;;0.10;0.10;;;3.10;99.90;;;;;;5071826;28;20110;-68
2022/02/25 04:04:29;;;;;;;0.40;0.40;;;3.20;99.90;;;;;;5069981;28;20469;-66
2022/02/25 04:06:55;;;;;;;0.10;0.10;;;3.10;99.90;;;;;;5070189;28;20028;-67
2022/02/25 04:09:22;;;;;;;0.10;0.10;;;3.10;99.90;;;;;;5070261;28;20029;-66
2022/02/25 04:11:50;;;;;;;0.10;0.10;;;3.10;99.90;;;;;;5071420;28;20489;-66
2022/02/25 04:14:20;;;;;;;0.00;0.00;;;3.10;99.90;;;;;;5070061;28;20040;-66
2022/02/25 04:16:48;;;;;;;0.10;0.10;;;3.00;99.90;;;;;;5070120;28;20404;-67
2022/02/25 04:19:15;;;;;;;0.10;0.10;;;3.10;99.90;;;;;;5070998;28;20461;-67
2022/02/25 04:21:42;;;;;;;0.15;0.13;;;3.10;99.90;;;;;;5071348;28;20029;-67
2022/02/25 04:24:08;;;;;;;0.10;0.10;;;3.10;99.90;;;;;;5072256;28;20033;-67
2022/02/25 04:26:33;;;;;;;0.10;0.10;;;3.10;99.90;;;;;;5075108;28;20036;-67
2022/02/25 04:28:59;;;;;;;0.00;0.00;;;2.90;99.90;;;;;;5075363;28;20035;-66
2022/02/25 04:31:25;;;;;;;0.10;0.10;;;2.90;99.90;;;;;;5073889;28;20059;-67
2022/02/25 04:33:51;;;;;;;0.10;0.10;;;2.80;99.90;;;;;;5074070;28;20031;-67
2022/02/25 04:36:21;;;;;;;0.10;0.10;;;2.80;99.90;;;;;;5075075;28;20401;-67
2022/02/25 04:38:52;;;;;;;0.57;0.57;;;2.80;99.90;;;;;;5074869;28;20115;-67
2022/02/25 04:41:19;;;;;;;0.10;0.10;;;2.80;99.90;;;;;;5073534;28;20047;-67
2022/02/25 04:43:46;;;;;;;0.10;0.10;;;2.80;99.90;;;;;;5073874;28;20028;-67
2022/02/25 04:46:20;;;;;;;0.10;0.10;;;2.90;99.90;;;;;;5075151;28;20032;-66
2022/02/25 04:48:47;;;;;;;0.00;0.00;;;2.80;99.90;;;;;;5074519;28;20041;-67
2022/02/25 04:51:17;;;;;;;0.10;0.10;;;2.80;99.90;;;;;;5074623;28;20040;-67
2022/02/25 04:53:44;;;;;;;0.10;0.10;;;2.70;99.90;;;;;;5073674;28;20085;-67
2022/02/25 04:56:10;;;;;;;0.00;0.00;;;2.70;99.90;;;;;;5074807;28;20112;-67
2022/02/25 04:58:36;;;;;;;0.10;0.10;;;2.70;99.90;;;;;;5074408;28;20030;-67
2022/02/25 05:01:03;;;;;;;0.10;0.10;;;2.80;99.90;;;;;;5073517;28;20036;-64
2022/02/25 05:03:29;;;;;;;2.15;2.05;;;2.70;99.90;;;;;;5073658;28;20033;-68
2022/02/25 05:05:56;;;;;;;0.00;0.00;;;2.70;99.90;;;;;;5074319;28;20074;-64
2022/02/25 05:08:22;;;;;;;0.10;0.10;;;2.70;99.90;;;;;;5074261;28;20025;-61
2022/02/25 05:10:48;;;;;;;0.10;0.10;;;2.70;99.90;;;;;;5069438;28;20029;-62
2022/02/25 05:13:13;;;;;;;0.10;0.10;;;2.70;99.90;;;;;;5054613;28;20043;-62
2022/02/25 05:21:08;;;;;;;0.10;0.10;;;2.80;99.90;;;;;;5054045;28;20041;-62
2022/02/25 05:23:34;;;;;;;0.10;0.10;;;2.70;99.90;;;;;;5052649;28;20401;-61
2022/02/25 05:25:59;;;;;;;0.10;0.10;;;2.60;99.90;;;;;;5054213;28;20056;-61
2022/02/25 05:28:28;;;;;;;0.10;0.10;;;2.50;99.90;;;;;;5054260;28;20183;-63
2022/02/25 05:30:54;;;;;;;0.00;0.00;;;2.50;99.90;;;;;;5053910;28;20028;-67
2022/02/25 05:33:20;;;;;;;0.10;0.10;;;2.40;99.90;;;;;;5052901;28;20036;-67
2022/02/25 05:35:45;;;;;;;0.08;0.08;;;2.50;99.90;;;;;;5051913;28;20036;-67
2022/02/25 05:38:13;;;;;;;0.10;0.10;;;2.50;99.90;;;;;;5052722;28;20028;-67
2022/02/25 05:40:42;;;;;;;0.10;0.10;;;2.50;99.90;;;;;;5053671;28;20458;-67
2022/02/25 05:43:08;;;;;;;0.10;0.10;;;2.50;99.90;;;;;;5053099;28;20473;-67
2022/02/25 05:45:34;;;;;;;0.10;0.10;;;2.50;99.90;;;;;;5053725;28;20078;-66
2022/02/25 05:48:00;;;;;;;0.10;0.10;;;2.50;99.90;;;;;;5052541;28;20442;-66
2022/02/25 05:50:26;;;;;;;0.10;0.10;;;2.60;99.90;;;;;;5053538;28;20071;-66
2022/02/25 05:52:53;;;;;;;0.10;0.10;;;2.60;99.90;;;;;;5052607;28;20083;-67
2022/02/25 05:55:20;;;;;;;0.10;0.10;;;2.60;99.90;;;;;;5053805;28;20025;-67
2022/02/25 05:57:47;;;;;;;0.20;0.20;;;2.70;99.90;;;;;;5052146;28;20504;-67
2022/02/25 06:00:16;;;;;;;0.10;0.10;;;2.80;99.90;;;;;;5051962;28;20498;-67
2022/02/25 06:02:44;;;;;;;0.10;0.10;;;3.00;99.90;;;;;;5053185;28;20485;-66
2022/02/25 06:05:13;;;;;;;0.00;0.00;;;3.00;99.90;;;;;;5052226;28;20037;-71
2022/02/25 06:07:41;;;;;;;0.10;0.10;;;3.10;99.90;;;;;;5052357;28;20076;-71
2022/02/25 06:10:08;;;;;;;0.15;0.15;;;3.10;99.90;;;;;;5053387;28;20044;-70
2022/02/25 06:12:34;;;;;;;10.75;4.68;;;3.20;99.90;;;;;;5052975;28;20033;-70
2022/02/25 06:15:00;;;;;;;0.10;0.10;;;3.20;99.90;;;;;;5051894;28;20033;-72
2022/02/25 06:17:26;;;;;;;0.00;0.00;;;3.20;99.90;;;;;;5053499;28;20171;-67
2022/02/25 06:19:52;;;;;;;0.10;0.10;;;3.20;99.90;;;;;;5052651;28;20530;-71
2022/02/25 06:22:18;;;;;;;0.00;0.00;;;3.30;99.90;;;;;;5052918;28;20036;-69
2022/02/25 06:24:44;;;;;;;0.10;0.10;;;3.20;99.90;;;;;;5052760;28;20652;-71
2022/02/25 06:27:10;;;;;;;0.32;0.32;;;3.10;99.90;;;;;;5052423;28;20509;-71
2022/02/25 06:29:35;;;;;;;0.00;0.00;;;3.10;99.90;;;;;;5034699;28;20041;-70
2022/02/25 06:32:02;;;;;;;0.00;0.00;;;3.00;99.90;;;;;;5053019;28;20025;-70
2022/02/25 06:34:27;;;;;;;0.10;0.10;;;3.10;99.90;;;;;;5052464;28;20033;-69
